Jamestown, Tennessee
Current Conditions -  °F | °C
As of 2:06 AM on Thursday 27 Nov 2014 (Local Time) from KEKQ Reporting Station
Light Snow Light Snow  
Wind Chill: 31°   Ceiling: 700
Heat Index: 36°   Visibility: 4mi
Dew Point: 36°   Wind: 6mph
Humidity: 100%   Direction: 230°SW
Pressure: 30.06"   Gusts: NA
Location:  36.43°N, 84.93°W
Report Text: KEKQ 270806Z AUTO 23005KT 4SM -SN BR OVC007 02/02 A3006 RMK AO2 CIG 002V010 P0000
Loading
Personal Weather Stations






























Interactive Weather Map New forecast layout! Learn more

10-Day Weather Forecast

Advertisements
Track Severe Weather on mobile